Time;durP1;ratioP1;P1;durP2;ratioP2;P2;SDS_P1;SDS_P2;PMS_P1;PMS_P2;Temp;Humidity;BMP_temperature;BMP_pressure;BME280_temperature;BME280_humidity;BME280_pressure;Samples;Min_cycle;Max_cycle;Signal;HPM_P1;HPM_P2
2023/08/18 00:01:15;;;;;;;1.73;1.60;;;17.20;99.90;;;;;;5001399;28;20207;-77
2023/08/18 00:03:40;;;;;;;6.97;2.20;;;17.20;99.90;;;;;;5000737;28;20041;-79
2023/08/18 00:06:06;;;;;;;6.45;2.53;;;17.10;99.90;;;;;;5000050;28;20330;-78
2023/08/18 00:08:32;;;;;;;2.13;1.88;;;17.00;99.90;;;;;;5000197;28;20380;-78
2023/08/18 00:10:59;;;;;;;3.47;1.50;;;16.90;99.90;;;;;;5001185;28;20030;-79
2023/08/18 00:13:24;;;;;;;6.95;2.38;;;16.80;99.90;;;;;;4982851;28;20062;-78
2023/08/18 00:15:50;;;;;;;5.03;2.15;;;16.70;99.90;;;;;;5001444;28;20029;-78
2023/08/18 00:18:16;;;;;;;3.05;1.58;;;16.70;99.90;;;;;;5000331;28;20034;-78
2023/08/18 00:20:41;;;;;;;8.70;2.50;;;16.60;99.90;;;;;;5000595;28;20097;-78
2023/08/18 00:23:07;;;;;;;7.40;1.60;;;16.60;99.90;;;;;;5000818;28;20069;-78
2023/08/18 00:25:32;;;;;;;6.53;2.30;;;16.60;99.90;;;;;;5000915;28;20034;-78
2023/08/18 00:27:58;;;;;;;9.63;2.33;;;16.60;99.90;;;;;;4999223;28;20310;-78
2023/08/18 00:30:24;;;;;;;3.08;2.13;;;16.50;99.90;;;;;;4983182;28;20041;-79
2023/08/18 00:32:52;;;;;;;3.42;1.92;;;16.50;99.90;;;;;;5000744;28;20030;-78
2023/08/18 00:35:18;;;;;;;4.00;2.10;;;16.50;99.90;;;;;;4999231;28;20030;-77
2023/08/18 00:37:45;;;;;;;2.30;1.83;;;16.40;99.90;;;;;;4998932;28;20088;-78
2023/08/18 00:40:11;;;;;;;2.95;2.25;;;16.30;99.90;;;;;;5000443;28;20033;-78
2023/08/18 00:42:36;;;;;;;2.97;2.08;;;16.40;99.90;;;;;;4982188;28;20038;-78
2023/08/18 00:45:03;;;;;;;3.25;2.00;;;16.30;99.90;;;;;;4982985;28;20072;-79
2023/08/18 00:47:29;;;;;;;3.75;1.75;;;16.30;99.90;;;;;;4999863;28;20022;-79
2023/08/18 00:49:57;;;;;;;5.70;2.50;;;16.30;99.90;;;;;;5000181;28;20046;-78
2023/08/18 00:52:24;;;;;;;1.95;1.65;;;16.30;99.90;;;;;;5000643;28;20033;-78
2023/08/18 00:54:51;;;;;;;5.00;1.77;;;16.30;99.90;;;;;;5001115;28;20022;-78
2023/08/18 00:57:17;;;;;;;5.20;1.70;;;16.30;99.90;;;;;;5001341;28;20203;-78
2023/08/18 00:59:44;;;;;;;3.65;2.35;;;16.30;99.90;;;;;;4983365;28;20065;-78
2023/08/18 01:02:10;;;;;;;8.40;1.98;;;16.30;99.90;;;;;;5000114;28;20073;-78
2023/08/18 01:04:35;;;;;;;7.82;2.28;;;16.30;99.90;;;;;;4999478;28;20323;-78
2023/08/18 01:07:01;;;;;;;4.00;2.30;;;16.30;99.90;;;;;;4983319;28;20018;-78
2023/08/18 01:09:28;;;;;;;3.65;2.47;;;16.30;99.90;;;;;;4999336;28;20045;-78
2023/08/18 01:12:26;;;;;;;3.83;1.90;;;16.30;99.90;;;;;;5000090;28;20026;-78
2023/08/18 01:15:07;;;;;;;5.63;1.85;;;16.20;99.90;;;;;;4982393;28;20081;-78
2023/08/18 01:17:43;;;;;;;6.82;1.90;;;16.10;99.90;;;;;;4982480;28;20105;-78
2023/08/18 01:20:11;;;;;;;2.13;1.75;;;16.00;99.90;;;;;;4982167;28;20049;-78
2023/08/18 01:22:39;;;;;;;2.13;1.80;;;16.10;99.90;;;;;;4982191;28;20362;-78
2023/08/18 01:25:05;;;;;;;2.73;1.60;;;16.00;99.90;;;;;;4999550;28;20097;-78
2023/08/18 01:27:31;;;;;;;3.17;2.05;;;16.00;99.90;;;;;;4981839;28;20045;-79
2023/08/18 01:29:58;;;;;;;5.65;2.60;;;16.10;99.90;;;;;;5000040;28;20046;-79
2023/08/18 01:32:29;;;;;;;3.40;2.03;;;16.10;99.90;;;;;;5000043;28;20026;-78
2023/08/18 01:34:58;;;;;;;1.95;1.42;;;16.20;99.90;;;;;;4982144;28;20064;-79
2023/08/18 01:37:27;;;;;;;3.97;2.10;;;16.20;99.90;;;;;;5000121;28;20345;-79
2023/08/18 01:39:54;;;;;;;2.08;1.88;;;16.20;99.90;;;;;;4983022;28;20050;-78
2023/08/18 01:42:20;;;;;;;2.53;1.95;;;16.20;99.90;;;;;;4982070;28;20274;-79
2023/08/18 01:44:48;;;;;;;3.67;2.75;;;16.20;99.90;;;;;;4981926;28;20034;-78
2023/08/18 01:47:14;;;;;;;3.05;1.92;;;16.10;99.90;;;;;;5000278;28;20026;-77
2023/08/18 01:49:39;;;;;;;3.45;2.03;;;16.10;99.90;;;;;;4997901;28;20080;-78
2023/08/18 01:52:05;;;;;;;3.83;2.28;;;16.00;99.90;;;;;;4982163;28;20218;-79
2023/08/18 01:54:31;;;;;;;6.47;1.92;;;16.00;99.90;;;;;;4999451;28;20042;-78
2023/08/18 01:56:57;;;;;;;2.55;1.80;;;16.00;99.90;;;;;;4981864;28;20350;-78
2023/08/18 01:59:23;;;;;;;7.00;2.45;;;16.00;99.90;;;;;;4999620;28;20349;-78
2023/08/18 02:01:49;;;;;;;2.67;2.45;;;16.10;99.90;;;;;;5000342;28;20041;-78
2023/08/18 02:04:14;;;;;;;5.75;2.38;;;16.00;99.90;;;;;;5002555;28;20293;-78
2023/08/18 02:06:41;;;;;;;3.70;1.85;;;16.00;99.90;;;;;;5003088;28;20054;-78
2023/08/18 02:09:07;;;;;;;3.00;1.90;;;16.00;99.90;;;;;;5003233;28;20026;-78
2023/08/18 02:11:32;;;;;;;5.57;2.22;;;16.00;99.90;;;;;;4985452;28;20042;-78
2023/08/18 02:13:58;;;;;;;3.40;2.15;;;16.00;99.90;;;;;;4985069;28;20077;-77
2023/08/18 02:16:23;;;;;;;4.93;1.83;;;15.90;99.90;;;;;;4984912;28;20019;-78
2023/08/18 02:18:50;;;;;;;3.63;1.90;;;15.90;99.90;;;;;;5002621;28;20030;-78
2023/08/18 02:21:15;;;;;;;3.25;2.38;;;15.90;99.90;;;;;;4985430;28;20037;-79
2023/08/18 02:23:41;;;;;;;6.25;2.10;;;16.00;99.90;;;;;;4985415;28;20026;-78
2023/08/18 02:26:07;;;;;;;3.95;2.10;;;16.00;99.90;;;;;;4985748;28;20045;-78
2023/08/18 02:28:34;;;;;;;4.40;2.20;;;16.00;99.90;;;;;;4985252;28;20334;-78
2023/08/18 02:31:04;;;;;;;3.78;2.25;;;16.10;99.90;;;;;;4984993;28;20022;-78
2023/08/18 02:33:31;;;;;;;5.70;2.30;;;16.10;99.90;;;;;;4986278;28;20105;-78
2023/08/18 02:35:58;;;;;;;7.00;2.38;;;16.10;99.90;;;;;;4984752;28;20318;-78
2023/08/18 02:38:25;;;;;;;2.50;2.05;;;16.10;99.90;;;;;;4985821;28;20307;-78
2023/08/18 02:40:52;;;;;;;5.53;2.78;;;16.10;99.90;;;;;;4985086;28;20018;-78
2023/08/18 02:43:18;;;;;;;2.22;1.80;;;16.20;99.90;;;;;;4985483;28;20218;-78
2023/08/18 02:45:43;;;;;;;16.70;2.20;;;16.10;99.90;;;;;;5002324;28;20026;-78
2023/08/18 02:48:13;;;;;;;6.95;2.38;;;16.20;99.90;;;;;;4984544;28;20063;-78
2023/08/18 02:50:39;;;;;;;2.28;2.00;;;16.20;99.90;;;;;;5002274;28;20035;-78
2023/08/18 02:53:06;;;;;;;3.67;2.30;;;16.20;99.90;;;;;;4985129;28;20326;-78
2023/08/18 02:55:34;;;;;;;2.20;1.80;;;16.30;99.90;;;;;;4984232;28;20030;-78
2023/08/18 02:58:00;;;;;;;5.35;1.95;;;16.30;99.90;;;;;;4984728;28;20022;-78
2023/08/18 03:00:26;;;;;;;7.72;2.47;;;16.30;99.90;;;;;;4984449;28;20089;-78
2023/08/18 03:02:52;;;;;;;3.20;1.77;;;16.20;99.90;;;;;;5002728;28;20030;-78
2023/08/18 03:05:18;;;;;;;3.78;2.42;;;16.20;99.90;;;;;;5001532;28;20026;-79
2023/08/18 03:07:44;;;;;;;3.50;1.70;;;16.10;99.90;;;;;;5002813;28;20030;-79
2023/08/18 03:10:10;;;;;;;2.90;1.77;;;16.10;99.90;;;;;;5002349;28;20109;-77
2023/08/18 03:12:35;;;;;;;2.28;1.90;;;16.10;99.90;;;;;;4998008;28;20022;-77
2023/08/18 03:15:01;;;;;;;2.40;2.20;;;16.00;99.90;;;;;;4993789;28;20563;-78
2023/08/18 03:17:26;;;;;;;5.10;1.98;;;16.00;99.90;;;;;;4991635;28;20026;-77
2023/08/18 03:19:52;;;;;;;4.13;2.13;;;15.90;99.90;;;;;;4974699;28;20050;-77
2023/08/18 03:22:18;;;;;;;5.72;1.88;;;15.90;99.90;;;;;;4993348;28;20061;-79
2023/08/18 03:24:43;;;;;;;1.83;1.55;;;15.80;99.90;;;;;;4975338;28;20033;-79
2023/08/18 03:27:09;;;;;;;8.15;2.55;;;15.80;99.90;;;;;;4974197;28;20089;-77
2023/08/18 03:29:34;;;;;;;3.63;1.85;;;15.80;99.90;;;;;;4991656;28;20042;-78
2023/08/18 03:32:00;;;;;;;1.80;1.70;;;15.70;99.90;;;;;;4974482;28;20027;-79
2023/08/18 03:34:26;;;;;;;3.83;2.15;;;15.70;99.90;;;;;;4976212;28;20066;-78
2023/08/18 03:36:51;;;;;;;4.47;2.03;;;15.70;99.90;;;;;;4991908;28;20033;-79
2023/08/18 03:39:17;;;;;;;2.40;2.15;;;15.60;99.90;;;;;;4976423;28;20188;-78
2023/08/18 03:41:42;;;;;;;1.98;1.73;;;15.60;99.90;;;;;;4995678;28;20326;-80
2023/08/18 03:44:08;;;;;;;4.68;1.92;;;15.50;99.90;;;;;;4991415;28;20423;-79
2023/08/18 03:46:34;;;;;;;3.25;1.95;;;15.50;99.90;;;;;;4972548;28;20056;-78
2023/08/18 03:49:00;;;;;;;2.92;2.03;;;15.50;99.90;;;;;;4991224;28;20026;-79
2023/08/18 03:51:25;;;;;;;4.50;1.88;;;15.50;99.90;;;;;;4991141;28;20503;-78
2023/08/18 03:53:51;;;;;;;2.67;1.85;;;15.50;99.90;;;;;;4990985;28;20049;-78
2023/08/18 03:56:17;;;;;;;2.80;2.00;;;15.40;99.90;;;;;;4989814;28;20023;-78
2023/08/18 03:58:43;;;;;;;6.75;2.50;;;15.40;99.90;;;;;;4989278;28;20081;-77
2023/08/18 04:01:09;;;;;;;2.17;1.85;;;15.30;99.90;;;;;;4971448;28;20057;-79
2023/08/18 04:03:36;;;;;;;2.20;1.98;;;15.30;99.90;;;;;;4988068;28;20034;-78
2023/08/18 04:06:03;;;;;;;6.18;2.17;;;15.20;99.90;;;;;;4989151;28;20050;-77
2023/08/18 04:08:30;;;;;;;5.13;2.25;;;15.30;99.90;;;;;;4971599;28;20113;-78
2023/08/18 04:10:56;;;;;;;5.35;2.42;;;15.20;99.90;;;;;;4989878;28;20027;-78
2023/08/18 04:13:22;;;;;;;6.32;2.28;;;15.10;99.90;;;;;;4973087;28;20038;-78
2023/08/18 04:15:47;;;;;;;5.82;2.67;;;15.10;99.90;;;;;;4971751;28;20557;-78
2023/08/18 04:18:13;;;;;;;2.28;2.08;;;15.10;99.90;;;;;;4990965;28;20483;-77
2023/08/18 04:20:38;;;;;;;4.00;2.30;;;15.10;99.90;;;;;;4990048;28;20411;-78
2023/08/18 04:23:04;;;;;;;3.92;2.05;;;15.10;99.90;;;;;;4990972;28;20418;-78
2023/08/18 04:25:30;;;;;;;6.13;2.00;;;15.10;99.90;;;;;;4990560;28;20056;-78
2023/08/18 04:27:56;;;;;;;3.97;2.08;;;15.10;99.90;;;;;;4973277;28;20031;-78
2023/08/18 04:30:22;;;;;;;4.40;1.92;;;15.20;99.90;;;;;;4990618;28;20026;-78
2023/08/18 04:32:48;;;;;;;3.25;2.30;;;15.10;99.90;;;;;;4989853;28;20033;-78
2023/08/18 04:35:13;;;;;;;3.13;2.42;;;15.10;99.90;;;;;;4990703;28;20475;-78
2023/08/18 04:37:39;;;;;;;3.05;2.47;;;15.10;99.90;;;;;;4973501;28;20030;-77
2023/08/18 04:40:06;;;;;;;3.83;1.80;;;15.10;99.90;;;;;;4990820;28;20061;-78
2023/08/18 04:42:31;;;;;;;7.45;2.88;;;15.10;99.90;;;;;;4972810;28;20026;-78
2023/08/18 04:44:57;;;;;;;2.85;2.20;;;15.00;99.90;;;;;;4973053;28;20022;-78
2023/08/18 04:47:23;;;;;;;3.88;2.10;;;14.90;99.90;;;;;;4990093;28;20037;-79
2023/08/18 04:49:48;;;;;;;4.78;2.45;;;14.90;99.90;;;;;;4990126;28;20109;-77
2023/08/18 04:52:15;;;;;;;2.92;1.67;;;14.90;99.90;;;;;;4989948;28;20382;-78
2023/08/18 04:54:40;;;;;;;4.75;2.13;;;15.00;99.90;;;;;;4990255;28;20038;-78
2023/08/18 04:57:07;;;;;;;3.40;2.22;;;15.10;99.90;;;;;;4990867;28;20076;-78
2023/08/18 04:59:33;;;;;;;5.05;2.10;;;15.20;99.90;;;;;;4972440;28;20507;-78
2023/08/18 05:01:59;;;;;;;4.20;2.88;;;15.20;99.90;;;;;;4972203;28;20042;-78
2023/08/18 05:04:24;;;;;;;2.50;2.13;;;15.20;99.90;;;;;;4972524;28;20495;-78
2023/08/18 05:06:50;;;;;;;8.85;2.80;;;15.20;99.90;;;;;;4989984;28;20171;-79
2023/08/18 05:09:16;;;;;;;2.13;1.92;;;15.30;99.90;;;;;;4972349;28;20037;-78
2023/08/18 05:11:42;;;;;;;3.70;1.80;;;15.30;99.90;;;;;;4989829;28;20038;-78
2023/08/18 05:14:08;;;;;;;3.42;2.30;;;15.40;99.90;;;;;;4989257;28;20073;-78
2023/08/18 05:16:33;;;;;;;8.52;2.55;;;15.40;99.90;;;;;;4971924;28;20026;-78
2023/08/18 05:18:59;;;;;;;5.03;2.45;;;15.40;99.90;;;;;;4972471;28;20390;-78
2023/08/18 05:21:25;;;;;;;5.55;2.20;;;15.50;99.90;;;;;;4972792;28;20034;-78
2023/08/18 05:23:51;;;;;;;4.75;1.92;;;15.50;99.90;;;;;;4989727;28;20478;-77
2023/08/18 05:26:16;;;;;;;3.13;1.70;;;15.60;99.90;;;;;;4990053;28;20038;-77
2023/08/18 05:28:43;;;;;;;2.00;1.60;;;15.80;99.90;;;;;;4989492;28;20026;-78
2023/08/18 05:31:10;;;;;;;3.65;1.77;;;15.80;99.90;;;;;;4989252;28;20165;-77
2023/08/18 05:33:36;;;;;;;2.03;1.42;;;16.00;99.90;;;;;;4989433;28;20065;-78
2023/08/18 05:36:04;;;;;;;3.13;1.73;;;16.10;99.90;;;;;;4989586;28;20112;-78
2023/08/18 05:38:30;;;;;;;6.93;2.03;;;16.10;99.90;;;;;;4974215;28;20497;-78
2023/08/18 05:41:08;;;;;;;3.45;2.10;;;16.30;99.90;;;;;;4975973;28;20026;-78
2023/08/18 05:43:37;;;;;;;4.03;1.70;;;16.40;99.90;;;;;;4993662;28;20022;-78
2023/08/18 05:46:04;;;;;;;5.53;2.10;;;16.50;99.90;;;;;;4993107;28;20077;-78
2023/08/18 05:48:32;;;;;;;1.65;1.55;;;16.70;99.90;;;;;;4993910;28;20018;-77
2023/08/18 05:51:01;;;;;;;1.80;1.70;;;16.70;99.90;;;;;;4993404;28;20514;-78
2023/08/18 05:53:26;;;;;;;2.85;2.00;;;16.80;99.90;;;;;;4993026;28;20030;-77
2023/08/18 05:55:52;;;;;;;2.17;1.52;;;16.90;99.90;;;;;;4993222;28;20034;-78
2023/08/18 05:58:18;;;;;;;2.15;1.30;;;16.90;99.90;;;;;;4975709;28;20499;-78
2023/08/18 06:00:45;;;;;;;5.07;2.85;;;17.10;99.90;;;;;;4992773;28;20043;-78
2023/08/18 06:03:10;;;;;;;2.25;1.73;;;17.20;99.90;;;;;;4993454;28;20019;-78
2023/08/18 06:05:36;;;;;;;3.05;2.03;;;17.40;99.90;;;;;;4993001;28;20056;-78
2023/08/18 06:08:02;;;;;;;2.08;1.42;;;17.50;99.90;;;;;;4993174;28;20101;-77
2023/08/18 06:10:27;;;;;;;1.85;1.75;;;17.60;99.90;;;;;;4975657;28;20081;-78
2023/08/18 06:12:53;;;;;;;2.30;1.48;;;17.90;99.90;;;;;;4992822;28;20108;-77
2023/08/18 06:15:20;;;;;;;4.43;1.45;;;18.00;99.90;;;;;;4993005;28;20035;-78
2023/08/18 06:17:47;;;;;;;2.33;1.40;;;18.20;99.90;;;;;;4975156;28;20526;-79
2023/08/18 06:20:13;;;;;;;1.70;1.50;;;18.30;99.90;;;;;;4993139;28;20026;-78
2023/08/18 06:22:39;;;;;;;3.38;1.40;;;18.40;99.90;;;;;;4993314;28;20035;-77
2023/08/18 06:25:07;;;;;;;2.65;2.13;;;18.60;99.90;;;;;;4993046;28;20494;-79
2023/08/18 06:27:33;;;;;;;2.35;1.40;;;18.70;99.90;;;;;;4992815;28;20376;-78
2023/08/18 06:29:58;;;;;;;1.70;1.60;;;18.90;99.90;;;;;;4975018;28;20481;-78
2023/08/18 06:32:24;;;;;;;7.82;2.47;;;19.10;99.90;;;;;;4992820;28;20027;-78
2023/08/18 06:34:53;;;;;;;4.05;1.73;;;19.30;99.90;;;;;;4992172;28;20380;-78
2023/08/18 06:37:19;;;;;;;2.40;1.92;;;19.40;99.90;;;;;;4992944;28;20054;-78
2023/08/18 06:39:45;;;;;;;4.60;2.38;;;19.60;99.90;;;;;;4992703;28;20444;-78
2023/08/18 06:42:12;;;;;;;3.47;1.48;;;19.80;99.90;;;;;;4975219;28;20053;-77
2023/08/18 06:44:38;;;;;;;2.70;1.50;;;20.00;99.90;;;;;;4992648;28;20030;-78
2023/08/18 06:47:04;;;;;;;3.53;1.50;;;20.10;99.90;;;;;;4974535;28;20027;-79
2023/08/18 06:49:29;;;;;;;4.07;1.40;;;20.20;99.90;;;;;;4991877;28;20076;-79
2023/08/18 06:51:55;;;;;;;2.20;1.52;;;20.30;99.90;;;;;;4992623;28;20498;-79
2023/08/18 06:54:21;;;;;;;10.25;1.58;;;20.60;99.90;;;;;;4992305;28;20060;-78
2023/08/18 06:56:46;;;;;;;15.02;2.50;;;21.10;99.90;;;;;;4992313;28;20168;-79
2023/08/18 06:59:15;;;;;;;4.45;3.08;;;21.50;99.90;;;;;;4974622;28;20519;-79
2023/08/18 07:01:41;;;;;;;5.47;1.58;;;21.80;99.90;;;;;;4991929;28;20386;-78
2023/08/18 07:04:08;;;;;;;8.68;2.25;;;22.60;99.90;;;;;;4992211;28;20461;-77
2023/08/18 07:06:34;;;;;;;8.48;2.22;;;23.50;99.90;;;;;;4974697;28;20440;-78
2023/08/18 07:09:00;;;;;;;3.45;1.75;;;23.80;99.90;;;;;;4974457;28;20027;-79
2023/08/18 07:11:26;;;;;;;5.47;1.70;;;23.60;99.90;;;;;;4992009;28;20035;-78
2023/08/18 07:13:51;;;;;;;4.43;2.30;;;23.80;99.90;;;;;;4992179;28;20046;-78
2023/08/18 07:16:17;;;;;;;4.88;1.90;;;23.70;99.90;;;;;;4973972;28;20356;-78
2023/08/18 07:18:42;;;;;;;4.80;1.50;;;23.50;99.90;;;;;;4974535;28;20129;-77
2023/08/18 07:21:08;;;;;;;7.18;1.67;;;23.50;99.90;;;;;;4992170;28;20026;-78
2023/08/18 07:23:34;;;;;;;4.03;1.30;;;23.90;99.90;;;;;;4974160;28;20034;-78
2023/08/18 07:25:59;;;;;;;3.03;1.70;;;24.10;99.90;;;;;;4991935;28;20034;-78
2023/08/18 07:28:25;;;;;;;4.60;1.52;;;24.10;99.90;;;;;;4991743;28;20022;-78
2023/08/18 07:30:51;;;;;;;6.85;3.35;;;23.90;99.90;;;;;;4991269;28;20034;-78
2023/08/18 07:33:17;;;;;;;6.75;1.60;;;23.80;99.90;;;;;;4991288;28;20032;-78
2023/08/18 07:35:43;;;;;;;2.67;1.60;;;23.60;99.90;;;;;;4973898;28;20446;-79
2023/08/18 07:38:08;;;;;;;3.30;1.48;;;23.50;99.90;;;;;;4974110;28;20026;-78
2023/08/18 07:40:34;;;;;;;5.28;1.77;;;23.50;99.90;;;;;;4973638;28;20046;-79
2023/08/18 07:43:00;;;;;;;2.70;1.23;;;23.50;99.90;;;;;;4974036;28;20039;-77
2023/08/18 07:45:29;;;;;;;3.40;1.48;;;23.50;99.90;;;;;;4973865;28;20070;-77
2023/08/18 07:47:55;;;;;;;9.05;2.13;;;23.80;99.90;;;;;;4973467;28;20041;-78
2023/08/18 07:50:21;;;;;;;3.58;1.80;;;24.20;99.90;;;;;;4991329;28;20026;-79
2023/08/18 07:52:46;;;;;;;3.55;1.45;;;24.30;99.90;;;;;;4973499;28;20026;-78
2023/08/18 07:55:12;;;;;;;7.43;2.15;;;24.30;99.90;;;;;;4991350;28;20463;-78
2023/08/18 07:57:38;;;;;;;1.90;1.42;;;24.40;99.90;;;;;;4991095;28;20026;-78
2023/08/18 08:00:16;;;;;;;7.30;1.85;;;24.50;99.90;;;;;;4990297;28;20047;-78
2023/08/18 08:02:43;;;;;;;3.88;1.98;;;24.50;99.80;;;;;;4991100;28;20022;-78
2023/08/18 08:05:08;;;;;;;4.30;1.55;;;24.70;99.20;;;;;;4990951;28;20122;-79
2023/08/18 08:07:34;;;;;;;2.47;1.40;;;24.90;98.30;;;;;;4973475;28;20113;-79
2023/08/18 08:10:04;;;;;;;4.63;1.27;;;24.80;98.60;;;;;;4973380;28;20034;-78
2023/08/18 08:12:31;;;;;;;1.80;1.40;;;25.10;98.70;;;;;;4990741;28;20442;-78
2023/08/18 08:14:58;;;;;;;1.85;1.33;;;25.80;97.50;;;;;;4990436;28;20495;-77
2023/08/18 08:17:24;;;;;;;2.15;1.17;;;27.00;94.40;;;;;;4972710;28;20033;-78
2023/08/18 08:19:50;;;;;;;2.55;1.48;;;28.10;92.00;;;;;;4990833;28;20026;-78
2023/08/18 08:22:18;;;;;;;4.72;1.13;;;29.00;88.00;;;;;;4973311;28;20030;-74
2023/08/18 08:24:44;;;;;;;4.38;1.23;;;29.90;80.10;;;;;;4973121;28;20022;-78
2023/08/18 08:27:10;;;;;;;6.18;2.28;;;30.60;77.10;;;;;;4990206;28;20045;-78
2023/08/18 08:29:35;;;;;;;4.45;1.00;;;30.50;75.10;;;;;;4972824;28;20022;-78
2023/08/18 08:32:01;;;;;;;8.23;1.67;;;30.90;74.30;;;;;;4990196;28;20506;-78
2023/08/18 08:34:27;;;;;;;7.07;1.58;;;31.50;72.20;;;;;;4990282;28;20160;-75
2023/08/18 08:36:53;;;;;;;4.00;1.75;;;31.90;70.60;;;;;;4990504;28;20607;-76
2023/08/18 08:39:19;;;;;;;6.63;2.45;;;32.10;69.70;;;;;;4990374;28;20042;-75
2023/08/18 08:41:44;;;;;;;2.67;1.40;;;32.50;68.20;;;;;;4973031;28;20530;-75
2023/08/18 08:44:10;;;;;;;2.47;1.15;;;32.60;66.30;;;;;;4972711;28;20088;-76
2023/08/18 08:46:37;;;;;;;4.97;1.70;;;33.10;65.30;;;;;;4990074;28;20050;-75
2023/08/18 08:49:05;;;;;;;4.97;1.58;;;33.40;64.70;;;;;;4990315;28;20034;-76
2023/08/18 08:51:36;;;;;;;4.32;2.22;;;33.60;62.90;;;;;;4990138;28;20026;-75
2023/08/18 08:54:04;;;;;;;7.60;1.85;;;33.10;63.90;;;;;;4990033;28;20042;-75
2023/08/18 08:56:34;;;;;;;2.75;1.30;;;33.20;64.30;;;;;;4972576;28;20018;-76
2023/08/18 08:59:01;;;;;;;1.92;1.65;;;33.00;63.70;;;;;;4972562;28;20034;-76
2023/08/18 09:01:26;;;;;;;1.50;1.10;;;33.10;64.70;;;;;;4972108;28;20030;-75
2023/08/18 09:03:53;;;;;;;1.10;1.00;;;33.10;63.20;;;;;;4972369;28;20027;-76
2023/08/18 09:06:19;;;;;;;3.75;1.48;;;33.50;62.50;;;;;;4990008;28;20513;-75
2023/08/18 09:08:44;;;;;;;1.38;1.15;;;33.40;61.60;;;;;;4989925;28;20034;-76
2023/08/18 09:11:10;;;;;;;1.73;1.50;;;33.40;62.40;;;;;;4989651;28;20092;-76
2023/08/18 09:13:36;;;;;;;5.90;2.92;;;33.40;62.30;;;;;;4989786;28;20034;-74
2023/08/18 09:16:06;;;;;;;1.30;1.00;;;32.70;63.60;;;;;;4971862;28;20473;-76
2023/08/18 09:18:33;;;;;;;16.80;2.20;;;32.70;63.40;;;;;;4972133;28;20019;-75
2023/08/18 09:21:04;;;;;;;9.38;3.33;;;32.70;63.40;;;;;;4989791;28;20165;-76
2023/08/18 09:23:29;;;;;;;2.97;1.80;;;32.90;63.80;;;;;;4989622;28;20022;-76
2023/08/18 09:25:57;;;;;;;6.70;2.40;;;33.20;62.80;;;;;;4989681;28;20479;-75
2023/08/18 09:28:26;;;;;;;8.57;2.22;;;33.00;63.20;;;;;;4989831;28;20030;-76
2023/08/18 09:30:52;;;;;;;7.40;1.73;;;32.90;62.70;;;;;;4989344;28;20410;-77
2023/08/18 09:33:21;;;;;;;2.30;1.83;;;33.00;62.70;;;;;;4972248;28;20133;-75
2023/08/18 09:35:56;;;;;;;9.25;1.77;;;33.40;62.30;;;;;;4971883;28;20057;-75
2023/08/18 09:38:24;;;;;;;13.55;8.02;;;33.40;61.70;;;;;;4989720;28;20419;-77
2023/08/18 09:40:55;;;;;;;7.10;2.25;;;33.10;61.80;;;;;;4971833;28;20076;-76
2023/08/18 09:43:21;;;;;;;3.05;1.40;;;33.10;63.50;;;;;;4989703;28;20117;-75
2023/08/18 09:45:47;;;;;;;2.95;1.73;;;32.60;63.10;;;;;;4989209;28;20102;-78
2023/08/18 09:48:14;;;;;;;1.67;1.55;;;32.00;63.90;;;;;;4989538;28;20179;-79
2023/08/18 09:50:42;;;;;;;2.78;1.25;;;31.30;64.20;;;;;;4989481;28;20030;-79
2023/08/18 09:53:10;;;;;;;2.70;1.47;;;31.60;65.30;;;;;;4971703;28;20112;-76
2023/08/18 09:55:44;;;;;;;3.27;1.70;;;31.60;64.50;;;;;;4989364;28;20027;-76
2023/08/18 09:58:43;;;;;;;2.25;1.38;;;31.90;65.10;;;;;;4989241;28;20281;-77
2023/08/18 10:01:09;;;;;;;;;;;32.50;63.50;;;;;;4971886;28;20061;-76
2023/08/18 10:03:38;;;;;;;1.50;1.40;;;32.50;64.70;;;;;;4989340;28;19910;-76
2023/08/18 10:06:07;;;;;;;3.30;1.73;;;32.30;62.30;;;;;;4972314;28;20586;-78
2023/08/18 10:08:34;;;;;;;5.50;2.20;;;31.90;62.80;;;;;;4971843;28;20041;-77
2023/08/18 10:11:01;;;;;;;2.10;1.60;;;31.90;63.20;;;;;;4989227;28;20022;-76
2023/08/18 10:13:30;;;;;;;5.85;1.80;;;31.90;61.10;;;;;;4971540;28;20032;-78
2023/08/18 10:15:56;;;;;;;3.78;1.50;;;31.80;60.90;;;;;;4989213;28;20188;-78
2023/08/18 10:18:23;;;;;;;6.00;1.60;;;31.90;62.10;;;;;;4989011;28;20030;-75
2023/08/18 10:20:53;;;;;;;4.28;2.00;;;32.10;61.40;;;;;;4989321;28;20058;-76
2023/08/18 10:23:22;;;;;;;2.40;1.30;;;32.30;61.60;;;;;;4989638;28;20077;-75
2023/08/18 10:25:52;;;;;;;1.77;1.55;;;32.70;60.70;;;;;;4992720;28;20030;-75
2023/08/18 10:28:19;;;;;;;2.17;1.98;;;33.00;59.70;;;;;;4992847;28;20038;-76
2023/08/18 10:30:56;;;;;;;3.22;2.22;;;33.20;60.70;;;;;;4992573;28;20026;-76
2023/08/18 10:33:45;;;;;;;2.72;1.88;;;32.90;58.00;;;;;;4992172;28;20439;-76
2023/08/18 10:36:16;;;;;;;;;;;33.00;59.40;;;;;;4991743;28;20019;-76
2023/08/18 10:38:41;;;;;;;2.95;1.60;;;33.60;59.20;;;;;;4981095;28;19901;-75
2023/08/18 10:41:08;;;;;;;2.28;1.45;;;34.10;57.50;;;;;;5003573;28;20042;-76
2023/08/18 10:43:51;;;;;;;4.90;1.92;;;34.50;56.60;;;;;;5003253;28;20032;-77
2023/08/18 10:46:17;;;;;;;2.78;1.40;;;34.30;54.70;;;;;;4992227;28;20046;-77
2023/08/18 10:48:43;;;;;;;7.88;1.55;;;34.10;56.80;;;;;;4991571;28;20129;-75
2023/08/18 10:51:09;;;;;;;3.67;1.30;;;34.20;55.60;;;;;;4992187;28;20018;-78
2023/08/18 10:53:37;;;;;;;2.50;1.30;;;33.70;53.60;;;;;;4990906;28;20618;-80
2023/08/18 10:56:04;;;;;;;1.83;1.45;;;33.90;53.30;;;;;;4990707;28;20026;-76
2023/08/18 10:58:30;;;;;;;3.28;1.67;;;34.30;53.00;;;;;;4991064;28;20487;-79
2023/08/18 11:00:56;;;;;;;7.60;1.58;;;34.60;52.90;;;;;;4954518;28;20344;-80
2023/08/18 11:03:22;;;;;;;3.70;1.85;;;34.90;53.40;;;;;;4968133;28;20027;-80
2023/08/18 11:05:48;;;;;;;4.20;1.55;;;34.30;52.70;;;;;;4953483;28;20491;-79
2023/08/18 11:08:14;;;;;;;4.63;2.28;;;34.20;53.60;;;;;;4968300;28;20118;-78
2023/08/18 11:10:40;;;;;;;1.88;1.58;;;34.60;53.60;;;;;;4953445;28;20027;-78
2023/08/18 11:13:21;;;;;;;1.60;1.40;;;35.00;51.70;;;;;;4953502;28;20078;-77
2023/08/18 11:15:48;;;;;;;2.95;1.48;;;35.80;51.00;;;;;;4968451;28;20528;-79
2023/08/18 11:18:13;;;;;;;2.53;1.40;;;35.50;49.50;;;;;;4953051;28;20048;-77
2023/08/18 11:20:39;;;;;;;1.77;1.55;;;35.10;50.60;;;;;;4953514;29;20011;-79
2023/08/18 11:23:05;;;;;;;1.95;1.42;;;35.50;50.50;;;;;;4952967;29;20503;-79
2023/08/18 11:25:31;;;;;;;1.88;1.45;;;36.00;50.90;;;;;;4968499;28;20109;-77
2023/08/18 11:27:56;;;;;;;2.45;1.52;;;36.30;50.30;;;;;;4968671;28;20423;-79
2023/08/18 11:30:22;;;;;;;1.33;1.23;;;36.90;49.30;;;;;;4938629;29;20508;-78
2023/08/18 11:32:48;;;;;;;1.25;1.15;;;37.60;48.90;;;;;;4941586;28;20073;-75
2023/08/18 11:35:14;;;;;;;3.08;1.77;;;37.90;48.10;;;;;;4962909;28;20049;-78
2023/08/18 11:37:45;;;;;;;1.80;1.23;;;38.40;46.90;;;;;;4961750;29;20062;-77
2023/08/18 11:40:22;;;;;;;1.50;1.40;;;38.70;47.60;;;;;;4961184;28;20027;-78
2023/08/18 11:42:52;;;;;;;1.73;1.20;;;38.90;46.50;;;;;;4963694;28;20330;-77
2023/08/18 11:45:21;;;;;;;12.05;1.95;;;39.00;46.20;;;;;;4962354;28;20083;-76
2023/08/18 11:47:56;;;;;;;1.75;1.60;;;38.90;45.30;;;;;;4962094;28;20019;-77
2023/08/18 11:50:38;;;;;;;3.65;1.73;;;38.70;45.30;;;;;;4962587;28;20216;-76
2023/08/18 11:53:05;;;;;;;3.22;1.40;;;39.00;47.50;;;;;;4959741;28;20035;-77
2023/08/18 11:55:50;;;;;;;4.03;1.50;;;39.00;46.60;;;;;;4976935;28;20030;-77
2023/08/18 11:58:16;;;;;;;4.45;1.42;;;38.70;45.60;;;;;;4972484;28;20042;-78
2023/08/18 12:00:45;;;;;;;1.63;1.38;;;38.00;45.60;;;;;;4983982;28;20384;-77
2023/08/18 12:03:19;;;;;;;1.40;1.27;;;36.70;48.70;;;;;;4989030;28;20015;-76
2023/08/18 12:05:46;;;;;;;3.65;1.38;;;37.00;48.60;;;;;;4971466;28;20072;-76
2023/08/18 12:08:11;;;;;;;4.18;1.80;;;37.40;47.10;;;;;;4989149;28;20471;-77
2023/08/18 12:10:38;;;;;;;3.63;1.70;;;37.60;48.40;;;;;;4990446;28;20026;-79
2023/08/18 12:13:03;;;;;;;2.13;1.50;;;36.90;47.10;;;;;;4989117;28;20034;-78
2023/08/18 12:15:29;;;;;;;1.75;1.60;;;36.70;48.50;;;;;;4990902;28;20040;-79
2023/08/18 12:17:55;;;;;;;1.30;1.20;;;36.60;47.20;;;;;;4988420;28;20033;-77
2023/08/18 12:20:21;;;;;;;1.77;1.40;;;36.90;46.70;;;;;;4990217;28;20102;-77
2023/08/18 12:22:49;;;;;;;3.55;1.65;;;38.50;46.00;;;;;;4990070;28;20351;-79
2023/08/18 12:25:15;;;;;;;4.07;1.75;;;40.00;46.20;;;;;;4988729;28;20112;-78
2023/08/18 12:27:43;;;;;;;1.23;1.20;;;41.00;43.80;;;;;;4988466;28;20030;-77
2023/08/18 12:30:09;;;;;;;3.13;1.88;;;41.70;44.10;;;;;;4989923;28;20455;-78
2023/08/18 12:32:35;;;;;;;2.13;1.20;;;41.70;44.40;;;;;;4988040;28;20050;-77
2023/08/18 12:35:00;;;;;;;5.15;1.40;;;41.40;43.40;;;;;;4991171;28;20062;-70
2023/08/18 12:37:26;;;;;;;3.00;1.10;;;41.20;44.50;;;;;;4989166;28;20041;-71
2023/08/18 12:39:52;;;;;;;1.30;1.20;;;41.60;44.30;;;;;;4988439;28;20023;-72
2023/08/18 12:42:18;;;;;;;1.50;1.05;;;40.70;44.30;;;;;;4983172;28;20026;-71
2023/08/18 12:44:44;;;;;;;1.92;1.75;;;40.00;44.70;;;;;;4989825;28;20073;-78
2023/08/18 12:47:09;;;;;;;2.08;1.45;;;38.70;45.10;;;;;;4988263;28;20435;-77